PWSweather.com
Personal Weather Stations
Station Observations
SHAHALMS1
Eftra, Falkenberg, HA

EftraFalkenberg, HA

Lat: 56.85, Lon: 12.65

Elevation: 140

Station Type:

http://hem.passagen.se/risarp101

Latest ConditionsUpdated 7:20:02 AM GMT+1 Friday, May 24, 2019
Currently Today's Max Today's Min Today's Average
Temperature 63.1°F17.3°C 65.7°F18.7°C 51.3°F10.7°C 54.5°F12.5°C
Dew Point 48.1°F8.9°C 51.4°F10.8°C 44.6°F7.0°C 47.5°F8.6°C
Winds 10.7 mph S17.2 kmh S 10.7 mph -17.2 kmh - - 5.3 mph 8.5 kmh
Wind Gusts 22.5 mph36.2 kmh 22.5 mph36.2 kmh - -
Humidity 58% 83% 58% 78%
Pressure 29.83 in1010.2 mb 29.92 in1013.2 mb 29.80 in1009.1 mb -
Hour Temp Dew Point Humidity Winds Wind Gusts Pressure Precip Precip Rate Daily Precip Total
07:20 AM 63.1°F17.3°C 48.1°F8.9°C 58% 10.7 mph S17.2 kmh S 22.5 mph36.2 kmh 29.83 in1010.2 mb 0.00 in0.0 mm 0.00 in0.0 mm 0.00 in0.0 mm
07:10 AM 64.0°F17.8°C 49.0°F9.4°C 58% 8.8 mph S14.2 kmh S 20.8 mph33.5 kmh 29.83 in1010.2 mb 0.00 in0.0 mm 0.00 in0.0 mm 0.00 in0.0 mm
07:00 AM 65.7°F18.7°C 51.4°F10.8°C 60% 7.1 mph S11.4 kmh S 17.5 mph28.2 kmh 29.83 in1010.2 mb 0.00 in0.0 mm 0.00 in0.0 mm 0.00 in0.0 mm
06:50 AM 64.0°F17.8°C 49.9°F9.9°C 60% 7.7 mph SSW12.4 kmh SSW 17.5 mph28.2 kmh 29.83 in1010.2 mb 0.00 in0.0 mm 0.00 in0.0 mm 0.00 in0.0 mm
06:40 AM 63.1°F17.3°C 50.8°F10.4°C 64% 6.8 mph S10.9 kmh S 16.1 mph25.9 kmh 29.83 in1010.2 mb 0.00 in0.0 mm 0.00 in0.0 mm 0.00 in0.0 mm
06:30 AM 61.2°F16.2°C 50.1°F10.1°C 67% 6.5 mph S10.5 kmh S 15.7 mph25.3 kmh 29.83 in1010.2 mb 0.00 in0.0 mm 0.00 in0.0 mm 0.00 in0.0 mm
06:20 AM 58.8°F14.9°C 50.9°F10.5°C 75% 5.8 mph S9.3 kmh S 13.6 mph21.9 kmh 29.83 in1010.2 mb 0.00 in0.0 mm 0.00 in0.0 mm 0.00 in0.0 mm
06:10 AM 55.8°F13.2°C 48.3°F9.1°C 76% 6.5 mph SSW10.5 kmh SSW 12.5 mph20.1 kmh 29.80 in1009.1 mb 0.00 in0.0 mm 0.00 in0.0 mm 0.00 in0.0 mm
06:00 AM 54.5°F12.5°C 47.8°F8.8°C 78% 6.8 mph S10.9 kmh S 15.7 mph25.3 kmh 29.80 in1009.1 mb 0.00 in0.0 mm 0.00 in0.0 mm 0.00 in0.0 mm
05:50 AM 53.4°F11.9°C 46.7°F8.2°C 78% 6.2 mph S10.0 kmh S 14.0 mph22.5 kmh 29.83 in1010.2 mb 0.00 in0.0 mm 0.00 in0.0 mm 0.00 in0.0 mm
05:40 AM 53.2°F11.8°C 46.6°F8.1°C 78% 5.1 mph S8.2 kmh S 11.5 mph18.5 kmh 29.80 in1009.1 mb 0.00 in0.0 mm 0.00 in0.0 mm 0.00 in0.0 mm
05:30 AM 53.1°F11.7°C 46.7°F8.2°C 79% 5.6 mph S9.0 kmh S 12.2 mph19.6 kmh 29.80 in1009.1 mb 0.00 in0.0 mm 0.00 in0.0 mm 0.00 in0.0 mm
05:20 AM 52.7°F11.5°C 46.4°F8.0°C 79% 6.2 mph SSW10.0 kmh SSW 16.8 mph27.0 kmh 29.83 in1010.2 mb 0.00 in0.0 mm 0.00 in0.0 mm 0.00 in0.0 mm
05:10 AM 52.3°F11.3°C 46.0°F7.8°C 79% 6.4 mph SSW10.3 kmh SSW 19.0 mph30.6 kmh 29.83 in1010.2 mb 0.00 in0.0 mm 0.00 in0.0 mm 0.00 in0.0 mm
05:00 AM 52.2°F11.2°C 45.8°F7.7°C 79% 5.8 mph SSW9.3 kmh SSW 15.4 mph24.8 kmh 29.83 in1010.2 mb 0.00 in0.0 mm 0.00 in0.0 mm 0.00 in0.0 mm
04:50 AM 52.0°F11.1°C 45.7°F7.6°C 79% 5.9 mph SW9.5 kmh SW 12.5 mph20.1 kmh 29.83 in1010.2 mb 0.00 in0.0 mm 0.00 in0.0 mm 0.00 in0.0 mm
04:40 AM 51.8°F11.0°C 45.5°F7.5°C 79% 5.4 mph SW8.7 kmh SW 14.0 mph22.5 kmh 29.83 in1010.2 mb 0.00 in0.0 mm 0.00 in0.0 mm 0.00 in0.0 mm
04:30 AM 51.4°F10.8°C 44.8°F7.1°C 78% 5.2 mph S8.4 kmh S 16.1 mph25.9 kmh 29.83 in1010.2 mb 0.00 in0.0 mm 0.00 in0.0 mm 0.00 in0.0 mm
04:20 AM 51.3°F10.7°C 44.6°F7.0°C 78% 4.8 mph S7.7 kmh S 10.4 mph16.7 kmh 29.83 in1010.2 mb 0.00 in0.0 mm 0.00 in0.0 mm 0.00 in0.0 mm
04:10 AM 51.4°F10.8°C 44.8°F7.1°C 78% 4.3 mph S6.9 kmh S 12.2 mph19.6 kmh 29.86 in1011.2 mb 0.00 in0.0 mm 0.00 in0.0 mm 0.00 in0.0 mm
04:00 AM 51.8°F11.0°C 45.2°F7.3°C 78% 3.9 mph SW6.3 kmh SW 9.3 mph15.0 kmh 29.86 in1011.2 mb 0.00 in0.0 mm 0.00 in0.0 mm 0.00 in0.0 mm
03:50 AM 51.8°F11.0°C 45.5°F7.5°C 79% 4.6 mph SW7.4 kmh SW 12.9 mph20.8 kmh 29.89 in1012.2 mb 0.00 in0.0 mm 0.00 in0.0 mm 0.00 in0.0 mm
03:40 AM 51.6°F10.9°C 45.3°F7.4°C 79% 4.4 mph SW7.1 kmh SW 15.7 mph25.3 kmh 29.89 in1012.2 mb 0.00 in0.0 mm 0.00 in0.0 mm 0.00 in0.0 mm
03:30 AM 51.4°F10.8°C 45.5°F7.5°C 80% 5.5 mph SW8.9 kmh SW 13.6 mph21.9 kmh 29.89 in1012.2 mb 0.00 in0.0 mm 0.00 in0.0 mm 0.00 in0.0 mm
03:20 AM 51.3°F10.7°C 45.3°F7.4°C 80% 4.4 mph SSW7.1 kmh SSW 12.2 mph19.6 kmh 29.89 in1012.2 mb 0.00 in0.0 mm 0.00 in0.0 mm 0.00 in0.0 mm
03:10 AM 51.4°F10.8°C 45.8°F7.7°C 81% 3.9 mph SSW6.3 kmh SSW 9.7 mph15.6 kmh 29.89 in1012.2 mb 0.00 in0.0 mm 0.00 in0.0 mm 0.00 in0.0 mm
03:00 AM 51.6°F10.9°C 46.3°F7.9°C 82% 3.9 mph SSW6.3 kmh SSW 8.9 mph14.3 kmh 29.89 in1012.2 mb 0.00 in0.0 mm 0.00 in0.0 mm 0.00 in0.0 mm
02:50 AM 52.2°F11.2°C 46.8°F8.2°C 82% 3.6 mph SW5.8 kmh SW 9.7 mph15.6 kmh 29.89 in1012.2 mb 0.00 in0.0 mm 0.00 in0.0 mm 0.00 in0.0 mm
02:40 AM 52.5°F11.4°C 47.5°F8.6°C 83% 3.9 mph SW6.3 kmh SW 9.7 mph15.6 kmh 29.89 in1012.2 mb 0.00 in0.0 mm 0.00 in0.0 mm 0.00 in0.0 mm
02:30 AM 52.7°F11.5°C 47.7°F8.7°C 83% 2.8 mph SW4.5 kmh SW 8.9 mph14.3 kmh 29.89 in1012.2 mb 0.00 in0.0 mm 0.00 in0.0 mm 0.00 in0.0 mm
02:20 AM 52.7°F11.5°C 47.7°F8.7°C 83% 4.1 mph W6.6 kmh W 11.5 mph18.5 kmh 29.92 in1013.2 mb 0.00 in0.0 mm 0.00 in0.0 mm 0.00 in0.0 mm
02:10 AM 52.7°F11.5°C 47.7°F8.7°C 83% 3.7 mph SW6.0 kmh SW 10.0 mph16.1 kmh 29.89 in1012.2 mb 0.00 in0.0 mm 0.00 in0.0 mm 0.00 in0.0 mm
02:00 AM 52.9°F11.6°C 47.9°F8.8°C 83% 3.1 mph SW5.0 kmh SW 8.9 mph14.3 kmh 29.89 in1012.2 mb 0.00 in0.0 mm 0.00 in0.0 mm 0.00 in0.0 mm
01:50 AM 53.1°F11.7°C 48.0°F8.9°C 83% 4.3 mph SW6.9 kmh SW 9.7 mph15.6 kmh 29.89 in1012.2 mb 0.00 in0.0 mm 0.00 in0.0 mm 0.00 in0.0 mm
01:40 AM 53.4°F11.9°C 48.4°F9.1°C 83% 4.2 mph SW6.8 kmh SW 10.7 mph17.2 kmh 29.89 in1012.2 mb 0.00 in0.0 mm 0.00 in0.0 mm 0.00 in0.0 mm
01:30 AM 53.6°F12.0°C 48.6°F9.2°C 83% 4.8 mph SW7.7 kmh SW 12.2 mph19.6 kmh 29.89 in1012.2 mb 0.00 in0.0 mm 0.00 in0.0 mm 0.00 in0.0 mm
01:20 AM 53.8°F12.1°C 48.7°F9.3°C 83% 5.2 mph SW8.4 kmh SW 14.0 mph22.5 kmh 29.89 in1012.2 mb 0.00 in0.0 mm 0.00 in0.0 mm 0.00 in0.0 mm
01:10 AM 53.8°F12.1°C 48.4°F9.1°C 82% 4.2 mph SSW6.8 kmh SSW 11.5 mph18.5 kmh 29.89 in1012.2 mb 0.00 in0.0 mm 0.00 in0.0 mm 0.00 in0.0 mm
01:00 AM 54.0°F12.2°C 48.3°F9.1°C 81% 3.8 mph SW6.1 kmh SW 10.4 mph16.7 kmh 29.89 in1012.2 mb 0.00 in0.0 mm 0.00 in0.0 mm 0.00 in0.0 mm
12:50 AM 54.1°F12.3°C 48.4°F9.1°C 81% 4.5 mph SW7.2 kmh SW 11.5 mph18.5 kmh 29.89 in1012.2 mb 0.00 in0.0 mm 0.00 in0.0 mm 0.00 in0.0 mm
12:40 AM 54.5°F12.5°C 48.8°F9.3°C 81% 6.0 mph S9.7 kmh S 14.0 mph22.5 kmh 29.89 in1012.2 mb 0.00 in0.0 mm 0.00 in0.0 mm 0.00 in0.0 mm
12:30 AM 54.7°F12.6°C 49.0°F9.4°C 81% 5.6 mph S9.0 kmh S 15.7 mph25.3 kmh 29.89 in1012.2 mb 0.00 in0.0 mm 0.00 in0.0 mm 0.00 in0.0 mm
12:20 AM 54.9°F12.7°C 48.8°F9.3°C 80% 5.5 mph S8.9 kmh S 12.2 mph19.6 kmh 29.92 in1013.2 mb 0.00 in0.0 mm 0.00 in0.0 mm 0.00 in0.0 mm
12:10 AM 55.0°F12.8°C 48.6°F9.2°C 79% 5.9 mph S9.5 kmh S 15.4 mph24.8 kmh 29.92 in1013.2 mb 0.00 in0.0 mm 0.00 in0.0 mm 0.00 in0.0 mm
12:00 AM 55.2°F12.9°C 48.8°F9.3°C 79% 5.8 mph S9.3 kmh S 13.6 mph21.9 kmh 29.92 in1013.2 mb 0.00 in0.0 mm 0.00 in0.0 mm 0.00 in0.0 mm